sensor_id;sensor_type;location;lat;lon;timestamp;temperature;humidity
4107;DHT22;21906;50.812;7.132;2023-12-20T00:00:36;9.60;82.60
4107;DHT22;21906;50.812;7.132;2023-12-20T00:03:03;9.60;82.70
4107;DHT22;21906;50.812;7.132;2023-12-20T00:05:29;9.50;82.70
4107;DHT22;21906;50.812;7.132;2023-12-20T00:07:57;9.60;82.90
4107;DHT22;21906;50.812;7.132;2023-12-20T00:10:23;9.50;83.00
4107;DHT22;21906;50.812;7.132;2023-12-20T00:12:48;9.60;82.90
4107;DHT22;21906;50.812;7.132;2023-12-20T00:15:14;9.60;82.60
4107;DHT22;21906;50.812;7.132;2023-12-20T00:17:40;9.50;82.80
4107;DHT22;21906;50.812;7.132;2023-12-20T00:20:06;9.60;82.80
4107;DHT22;21906;50.812;7.132;2023-12-20T00:22:32;9.50;82.90
4107;DHT22;21906;50.812;7.132;2023-12-20T00:24:57;9.50;83.10
4107;DHT22;21906;50.812;7.132;2023-12-20T00:27:23;9.60;83.10
4107;DHT22;21906;50.812;7.132;2023-12-20T00:29:49;9.60;82.90
4107;DHT22;21906;50.812;7.132;2023-12-20T00:32:16;9.60;82.80
4107;DHT22;21906;50.812;7.132;2023-12-20T00:34:42;9.70;82.70
4107;DHT22;21906;50.812;7.132;2023-12-20T00:37:08;9.70;82.40
4107;DHT22;21906;50.812;7.132;2023-12-20T00:39:33;9.80;82.30
4107;DHT22;21906;50.812;7.132;2023-12-20T00:41:59;9.80;82.00
4107;DHT22;21906;50.812;7.132;2023-12-20T00:44:24;9.80;82.10
4107;DHT22;21906;50.812;7.132;2023-12-20T00:46:50;9.80;82.30
4107;DHT22;21906;50.812;7.132;2023-12-20T00:49:16;9.80;82.30
4107;DHT22;21906;50.812;7.132;2023-12-20T00:51:42;9.70;82.60
4107;DHT22;21906;50.812;7.132;2023-12-20T00:54:08;9.70;82.50
4107;DHT22;21906;50.812;7.132;2023-12-20T00:56:34;9.80;82.40
4107;DHT22;21906;50.812;7.132;2023-12-20T00:59:00;9.80;82.50
4107;DHT22;21906;50.812;7.132;2023-12-20T01:01:26;9.70;82.60
4107;DHT22;21906;50.812;7.132;2023-12-20T01:03:51;9.70;82.70
4107;DHT22;21906;50.812;7.132;2023-12-20T01:06:18;9.70;82.80
4107;DHT22;21906;50.812;7.132;2023-12-20T01:08:43;9.70;82.90
4107;DHT22;21906;50.812;7.132;2023-12-20T01:11:09;9.60;82.90
4107;DHT22;21906;50.812;7.132;2023-12-20T01:13:35;9.60;83.20
4107;DHT22;21906;50.812;7.132;2023-12-20T01:16:00;9.50;83.70
4107;DHT22;21906;50.812;7.132;2023-12-20T01:18:26;9.60;83.60
4107;DHT22;21906;50.812;7.132;2023-12-20T01:20:52;9.60;83.40
4107;DHT22;21906;50.812;7.132;2023-12-20T01:23:18;9.60;83.70
4107;DHT22;21906;50.812;7.132;2023-12-20T01:25:43;9.60;83.60
4107;DHT22;21906;50.812;7.132;2023-12-20T01:28:09;9.60;83.70
4107;DHT22;21906;50.812;7.132;2023-12-20T01:30:34;9.50;83.80
4107;DHT22;21906;50.812;7.132;2023-12-20T01:33:00;9.60;83.90
4107;DHT22;21906;50.812;7.132;2023-12-20T01:35:26;9.60;83.70
4107;DHT22;21906;50.812;7.132;2023-12-20T01:37:52;9.60;83.80
4107;DHT22;21906;50.812;7.132;2023-12-20T01:40:22;9.60;83.70
4107;DHT22;21906;50.812;7.132;2023-12-20T01:42:57;9.60;83.20
4107;DHT22;21906;50.812;7.132;2023-12-20T01:45:22;9.60;82.60
4107;DHT22;21906;50.812;7.132;2023-12-20T01:47:48;9.60;82.50
4107;DHT22;21906;50.812;7.132;2023-12-20T01:50:14;9.60;82.30
4107;DHT22;21906;50.812;7.132;2023-12-20T01:52:41;9.60;82.30
4107;DHT22;21906;50.812;7.132;2023-12-20T01:55:07;9.60;82.20
4107;DHT22;21906;50.812;7.132;2023-12-20T01:57:41;9.60;82.10
4107;DHT22;21906;50.812;7.132;2023-12-20T02:00:08;9.70;81.10
4107;DHT22;21906;50.812;7.132;2023-12-20T02:02:36;9.60;81.00
4107;DHT22;21906;50.812;7.132;2023-12-20T02:05:05;9.40;81.20
4107;DHT22;21906;50.812;7.132;2023-12-20T02:07:31;9.40;80.90
4107;DHT22;21906;50.812;7.132;2023-12-20T02:09:57;9.30;81.20
4107;DHT22;21906;50.812;7.132;2023-12-20T02:12:23;9.40;81.20
4107;DHT22;21906;50.812;7.132;2023-12-20T02:14:49;9.40;81.00
4107;DHT22;21906;50.812;7.132;2023-12-20T02:17:16;9.40;80.90
4107;DHT22;21906;50.812;7.132;2023-12-20T02:19:41;9.40;80.60
4107;DHT22;21906;50.812;7.132;2023-12-20T02:22:11;9.40;79.30
4107;DHT22;21906;50.812;7.132;2023-12-20T02:24:37;9.20;79.20
4107;DHT22;21906;50.812;7.132;2023-12-20T02:27:03;9.10;79.50
4107;DHT22;21906;50.812;7.132;2023-12-20T02:29:31;9.00;79.50
4107;DHT22;21906;50.812;7.132;2023-12-20T02:31:56;8.90;78.60
4107;DHT22;21906;50.812;7.132;2023-12-20T02:34:22;8.70;78.50
4107;DHT22;21906;50.812;7.132;2023-12-20T02:36:48;8.70;78.80
4107;DHT22;21906;50.812;7.132;2023-12-20T02:39:14;8.60;78.40
4107;DHT22;21906;50.812;7.132;2023-12-20T02:41:39;8.70;78.30
4107;DHT22;21906;50.812;7.132;2023-12-20T02:44:05;8.50;78.40
4107;DHT22;21906;50.812;7.132;2023-12-20T02:46:31;8.40;78.60
4107;DHT22;21906;50.812;7.132;2023-12-20T02:48:57;8.40;78.70
4107;DHT22;21906;50.812;7.132;2023-12-20T02:51:23;8.40;78.40
4107;DHT22;21906;50.812;7.132;2023-12-20T02:53:49;8.40;78.30
4107;DHT22;21906;50.812;7.132;2023-12-20T02:56:14;8.40;78.30
4107;DHT22;21906;50.812;7.132;2023-12-20T02:58:40;8.40;78.30
4107;DHT22;21906;50.812;7.132;2023-12-20T03:01:06;8.30;78.20
4107;DHT22;21906;50.812;7.132;2023-12-20T03:03:31;8.20;78.50
4107;DHT22;21906;50.812;7.132;2023-12-20T03:05:58;8.20;78.30
4107;DHT22;21906;50.812;7.132;2023-12-20T03:08:23;8.20;78.40
4107;DHT22;21906;50.812;7.132;2023-12-20T03:10:49;8.30;78.30
4107;DHT22;21906;50.812;7.132;2023-12-20T03:13:14;8.40;77.90
4107;DHT22;21906;50.812;7.132;2023-12-20T03:15:40;8.40;77.50
4107;DHT22;21906;50.812;7.132;2023-12-20T03:18:06;8.40;77.20
4107;DHT22;21906;50.812;7.132;2023-12-20T03:20:31;8.40;77.50
4107;DHT22;21906;50.812;7.132;2023-12-20T03:23:00;8.50;77.00
4107;DHT22;21906;50.812;7.132;2023-12-20T03:25:26;8.40;77.20
4107;DHT22;21906;50.812;7.132;2023-12-20T03:27:52;8.40;77.30
4107;DHT22;21906;50.812;7.132;2023-12-20T03:30:18;8.40;77.40
4107;DHT22;21906;50.812;7.132;2023-12-20T03:32:44;8.40;77.60
4107;DHT22;21906;50.812;7.132;2023-12-20T03:35:10;8.40;77.80
4107;DHT22;21906;50.812;7.132;2023-12-20T03:37:35;8.40;77.60
4107;DHT22;21906;50.812;7.132;2023-12-20T03:40:01;8.40;77.60
4107;DHT22;21906;50.812;7.132;2023-12-20T03:42:27;8.40;77.60
4107;DHT22;21906;50.812;7.132;2023-12-20T03:44:53;8.50;77.80
4107;DHT22;21906;50.812;7.132;2023-12-20T03:47:18;8.50;77.60
4107;DHT22;21906;50.812;7.132;2023-12-20T03:49:44;8.40;77.40
4107;DHT22;21906;50.812;7.132;2023-12-20T03:52:10;8.40;77.50
4107;DHT22;21906;50.812;7.132;2023-12-20T03:54:35;8.40;78.00
4107;DHT22;21906;50.812;7.132;2023-12-20T03:57:01;8.40;77.80
4107;DHT22;21906;50.812;7.132;2023-12-20T03:59:27;8.40;78.10
4107;DHT22;21906;50.812;7.132;2023-12-20T04:01:52;8.40;77.90
4107;DHT22;21906;50.812;7.132;2023-12-20T04:04:19;8.50;77.90
4107;DHT22;21906;50.812;7.132;2023-12-20T04:06:44;8.40;78.00
4107;DHT22;21906;50.812;7.132;2023-12-20T04:09:10;8.40;78.10
4107;DHT22;21906;50.812;7.132;2023-12-20T04:11:39;8.40;77.80
4107;DHT22;21906;50.812;7.132;2023-12-20T04:14:04;8.40;78.10
4107;DHT22;21906;50.812;7.132;2023-12-20T04:16:30;8.40;77.90
4107;DHT22;21906;50.812;7.132;2023-12-20T04:18:56;8.40;78.10
4107;DHT22;21906;50.812;7.132;2023-12-20T04:21:21;8.40;77.90
4107;DHT22;21906;50.812;7.132;2023-12-20T04:23:47;8.50;77.60
4107;DHT22;21906;50.812;7.132;2023-12-20T04:26:13;8.50;77.60
4107;DHT22;21906;50.812;7.132;2023-12-20T04:28:38;8.50;77.70
4107;DHT22;21906;50.812;7.132;2023-12-20T04:31:04;8.50;77.50
4107;DHT22;21906;50.812;7.132;2023-12-20T04:33:29;8.60;77.30
4107;DHT22;21906;50.812;7.132;2023-12-20T04:35:55;8.60;77.50
4107;DHT22;21906;50.812;7.132;2023-12-20T04:38:20;8.60;77.60
4107;DHT22;21906;50.812;7.132;2023-12-20T04:40:46;8.60;77.50
4107;DHT22;21906;50.812;7.132;2023-12-20T04:43:13;8.60;77.40
4107;DHT22;21906;50.812;7.132;2023-12-20T04:45:38;8.60;77.20
4107;DHT22;21906;50.812;7.132;2023-12-20T04:48:04;8.60;77.00
4107;DHT22;21906;50.812;7.132;2023-12-20T04:50:30;8.70;77.30
4107;DHT22;21906;50.812;7.132;2023-12-20T04:52:56;8.60;77.20
4107;DHT22;21906;50.812;7.132;2023-12-20T04:55:21;8.70;76.90
4107;DHT22;21906;50.812;7.132;2023-12-20T04:57:47;8.60;77.00
4107;DHT22;21906;50.812;7.132;2023-12-20T05:00:13;8.70;76.90
4107;DHT22;21906;50.812;7.132;2023-12-20T05:02:40;8.50;77.00
4107;DHT22;21906;50.812;7.132;2023-12-20T05:05:07;8.60;77.00
4107;DHT22;21906;50.812;7.132;2023-12-20T05:07:32;8.60;77.20
4107;DHT22;21906;50.812;7.132;2023-12-20T05:09:58;8.50;77.20
4107;DHT22;21906;50.812;7.132;2023-12-20T05:12:24;8.50;77.00
4107;DHT22;21906;50.812;7.132;2023-12-20T05:14:51;8.40;77.20
4107;DHT22;21906;50.812;7.132;2023-12-20T05:17:17;8.40;77.10
4107;DHT22;21906;50.812;7.132;2023-12-20T05:19:42;8.50;77.10
4107;DHT22;21906;50.812;7.132;2023-12-20T05:22:08;8.50;77.10
4107;DHT22;21906;50.812;7.132;2023-12-20T05:24:34;8.40;76.90
4107;DHT22;21906;50.812;7.132;2023-12-20T05:26:59;8.30;77.30
4107;DHT22;21906;50.812;7.132;2023-12-20T05:29:25;8.40;77.10
4107;DHT22;21906;50.812;7.132;2023-12-20T05:31:50;8.40;77.00
4107;DHT22;21906;50.812;7.132;2023-12-20T05:34:19;8.40;77.00
4107;DHT22;21906;50.812;7.132;2023-12-20T05:36:45;8.30;77.00
4107;DHT22;21906;50.812;7.132;2023-12-20T05:39:11;8.20;77.00
4107;DHT22;21906;50.812;7.132;2023-12-20T05:41:37;8.20;77.40
4107;DHT22;21906;50.812;7.132;2023-12-20T05:44:02;8.30;77.20
4107;DHT22;21906;50.812;7.132;2023-12-20T05:46:28;8.20;77.00
4107;DHT22;21906;50.812;7.132;2023-12-20T05:48:54;8.30;76.90
4107;DHT22;21906;50.812;7.132;2023-12-20T05:51:19;8.40;76.70
4107;DHT22;21906;50.812;7.132;2023-12-20T05:53:45;8.30;76.80
4107;DHT22;21906;50.812;7.132;2023-12-20T05:56:11;8.40;76.90
4107;DHT22;21906;50.812;7.132;2023-12-20T05:58:38;8.40;76.90
4107;DHT22;21906;50.812;7.132;2023-12-20T06:01:04;8.30;77.00
4107;DHT22;21906;50.812;7.132;2023-12-20T06:03:30;8.30;77.00
4107;DHT22;21906;50.812;7.132;2023-12-20T06:05:56;8.40;76.90
4107;DHT22;21906;50.812;7.132;2023-12-20T06:08:21;8.30;77.00
4107;DHT22;21906;50.812;7.132;2023-12-20T06:10:47;8.30;77.00
4107;DHT22;21906;50.812;7.132;2023-12-20T06:13:13;8.30;76.90
4107;DHT22;21906;50.812;7.132;2023-12-20T06:15:39;8.30;76.90
4107;DHT22;21906;50.812;7.132;2023-12-20T06:18:08;8.40;77.50
4107;DHT22;21906;50.812;7.132;2023-12-20T06:20:33;8.30;78.00
4107;DHT22;21906;50.812;7.132;2023-12-20T06:22:59;8.20;78.80
4107;DHT22;21906;50.812;7.132;2023-12-20T06:25:25;8.30;78.60
4107;DHT22;21906;50.812;7.132;2023-12-20T06:27:50;8.30;78.60
4107;DHT22;21906;50.812;7.132;2023-12-20T06:30:16;8.40;78.60
4107;DHT22;21906;50.812;7.132;2023-12-20T06:32:42;8.30;78.60
4107;DHT22;21906;50.812;7.132;2023-12-20T06:35:09;8.40;78.80
4107;DHT22;21906;50.812;7.132;2023-12-20T06:37:35;8.40;78.40
4107;DHT22;21906;50.812;7.132;2023-12-20T06:40:01;8.40;78.40
4107;DHT22;21906;50.812;7.132;2023-12-20T06:42:27;8.40;78.10
4107;DHT22;21906;50.812;7.132;2023-12-20T06:44:52;8.20;78.10
4107;DHT22;21906;50.812;7.132;2023-12-20T06:47:18;8.20;78.10
4107;DHT22;21906;50.812;7.132;2023-12-20T06:49:44;8.20;77.90
4107;DHT22;21906;50.812;7.132;2023-12-20T06:52:09;8.40;77.70
4107;DHT22;21906;50.812;7.132;2023-12-20T06:54:36;8.40;77.40
4107;DHT22;21906;50.812;7.132;2023-12-20T06:57:01;8.40;77.50
4107;DHT22;21906;50.812;7.132;2023-12-20T06:59:29;8.30;77.60
4107;DHT22;21906;50.812;7.132;2023-12-20T07:01:55;8.30;77.50
4107;DHT22;21906;50.812;7.132;2023-12-20T07:04:20;8.30;77.30
4107;DHT22;21906;50.812;7.132;2023-12-20T07:06:48;8.30;77.30
4107;DHT22;21906;50.812;7.132;2023-12-20T07:09:16;8.30;77.20
4107;DHT22;21906;50.812;7.132;2023-12-20T07:11:42;8.30;77.30
4107;DHT22;21906;50.812;7.132;2023-12-20T07:14:08;8.30;77.10
4107;DHT22;21906;50.812;7.132;2023-12-20T07:16:34;8.30;77.60
4107;DHT22;21906;50.812;7.132;2023-12-20T07:19:00;8.30;77.20
4107;DHT22;21906;50.812;7.132;2023-12-20T07:21:26;8.30;77.10
4107;DHT22;21906;50.812;7.132;2023-12-20T07:23:51;8.30;77.20
4107;DHT22;21906;50.812;7.132;2023-12-20T07:26:17;8.30;76.80
4107;DHT22;21906;50.812;7.132;2023-12-20T07:28:43;8.30;76.80
4107;DHT22;21906;50.812;7.132;2023-12-20T07:31:08;8.20;76.80
4107;DHT22;21906;50.812;7.132;2023-12-20T07:33:34;8.20;76.90
4107;DHT22;21906;50.812;7.132;2023-12-20T07:36:00;8.20;76.90
4107;DHT22;21906;50.812;7.132;2023-12-20T07:38:26;8.20;76.80
4107;DHT22;21906;50.812;7.132;2023-12-20T07:40:52;8.30;76.70
4107;DHT22;21906;50.812;7.132;2023-12-20T07:43:17;8.20;76.40
4107;DHT22;21906;50.812;7.132;2023-12-20T07:45:43;8.30;76.60
4107;DHT22;21906;50.812;7.132;2023-12-20T07:48:09;8.20;76.20
4107;DHT22;21906;50.812;7.132;2023-12-20T07:50:35;8.30;76.10
4107;DHT22;21906;50.812;7.132;2023-12-20T07:53:00;8.30;75.80
4107;DHT22;21906;50.812;7.132;2023-12-20T07:55:27;8.30;76.20
4107;DHT22;21906;50.812;7.132;2023-12-20T07:57:52;8.30;76.10
4107;DHT22;21906;50.812;7.132;2023-12-20T08:00:18;8.30;75.80
4107;DHT22;21906;50.812;7.132;2023-12-20T08:02:44;8.20;75.90
4107;DHT22;21906;50.812;7.132;2023-12-20T08:05:10;8.30;75.70
4107;DHT22;21906;50.812;7.132;2023-12-20T08:07:36;8.40;75.50
4107;DHT22;21906;50.812;7.132;2023-12-20T08:10:02;8.40;75.40
4107;DHT22;21906;50.812;7.132;2023-12-20T08:12:28;8.40;75.30
4107;DHT22;21906;50.812;7.132;2023-12-20T08:14:54;8.40;74.90
4107;DHT22;21906;50.812;7.132;2023-12-20T08:17:20;8.40;75.10
4107;DHT22;21906;50.812;7.132;2023-12-20T08:19:45;8.40;74.50
4107;DHT22;21906;50.812;7.132;2023-12-20T08:22:11;8.50;74.50
4107;DHT22;21906;50.812;7.132;2023-12-20T08:24:37;8.40;74.40
4107;DHT22;21906;50.812;7.132;2023-12-20T08:27:04;8.40;74.50
4107;DHT22;21906;50.812;7.132;2023-12-20T08:29:30;8.40;74.10
4107;DHT22;21906;50.812;7.132;2023-12-20T08:31:56;8.40;74.20
4107;DHT22;21906;50.812;7.132;2023-12-20T08:34:23;8.40;74.10
4107;DHT22;21906;50.812;7.132;2023-12-20T08:36:50;8.40;74.50
4107;DHT22;21906;50.812;7.132;2023-12-20T08:39:16;8.40;74.70
4107;DHT22;21906;50.812;7.132;2023-12-20T08:41:42;8.50;74.40
4107;DHT22;21906;50.812;7.132;2023-12-20T08:44:09;8.50;74.50
4107;DHT22;21906;50.812;7.132;2023-12-20T08:46:34;8.50;74.30
4107;DHT22;21906;50.812;7.132;2023-12-20T08:49:01;8.50;73.90
4107;DHT22;21906;50.812;7.132;2023-12-20T08:51:27;8.50;74.00
4107;DHT22;21906;50.812;7.132;2023-12-20T08:53:53;8.50;74.00
4107;DHT22;21906;50.812;7.132;2023-12-20T08:56:19;8.40;74.10
4107;DHT22;21906;50.812;7.132;2023-12-20T08:58:46;8.50;73.90
4107;DHT22;21906;50.812;7.132;2023-12-20T09:01:13;8.50;74.10
4107;DHT22;21906;50.812;7.132;2023-12-20T09:03:39;8.50;73.70
4107;DHT22;21906;50.812;7.132;2023-12-20T09:06:05;8.50;73.80
4107;DHT22;21906;50.812;7.132;2023-12-20T09:08:31;8.50;73.60
4107;DHT22;21906;50.812;7.132;2023-12-20T09:10:57;8.50;73.50
4107;DHT22;21906;50.812;7.132;2023-12-20T09:13:23;8.60;73.60
4107;DHT22;21906;50.812;7.132;2023-12-20T09:15:55;8.60;73.60
4107;DHT22;21906;50.812;7.132;2023-12-20T09:18:20;8.60;73.30
4107;DHT22;21906;50.812;7.132;2023-12-20T09:20:46;8.60;73.60
4107;DHT22;21906;50.812;7.132;2023-12-20T09:23:12;8.60;73.00
4107;DHT22;21906;50.812;7.132;2023-12-20T09:25:37;8.70;72.80
4107;DHT22;21906;50.812;7.132;2023-12-20T09:28:03;8.70;72.70
4107;DHT22;21906;50.812;7.132;2023-12-20T09:30:29;8.80;72.90
4107;DHT22;21906;50.812;7.132;2023-12-20T09:32:55;8.80;73.10
4107;DHT22;21906;50.812;7.132;2023-12-20T09:35:21;8.70;72.60
4107;DHT22;21906;50.812;7.132;2023-12-20T09:37:47;8.70;72.50
4107;DHT22;21906;50.812;7.132;2023-12-20T09:40:13;8.80;72.70
4107;DHT22;21906;50.812;7.132;2023-12-20T09:42:46;8.70;72.70
4107;DHT22;21906;50.812;7.132;2023-12-20T09:45:15;8.70;72.80
4107;DHT22;21906;50.812;7.132;2023-12-20T09:47:43;8.70;72.90
4107;DHT22;21906;50.812;7.132;2023-12-20T09:50:09;8.70;72.70
4107;DHT22;21906;50.812;7.132;2023-12-20T09:52:36;8.70;72.90
4107;DHT22;21906;50.812;7.132;2023-12-20T09:55:04;8.80;72.60
4107;DHT22;21906;50.812;7.132;2023-12-20T09:57:33;8.70;72.60
4107;DHT22;21906;50.812;7.132;2023-12-20T09:59:59;8.70;72.80
4107;DHT22;21906;50.812;7.132;2023-12-20T10:02:25;8.60;72.70
4107;DHT22;21906;50.812;7.132;2023-12-20T10:04:55;8.70;73.10
4107;DHT22;21906;50.812;7.132;2023-12-20T10:07:21;8.70;73.20
4107;DHT22;21906;50.812;7.132;2023-12-20T10:09:48;8.70;72.70
4107;DHT22;21906;50.812;7.132;2023-12-20T10:12:14;8.80;72.80
4107;DHT22;21906;50.812;7.132;2023-12-20T10:14:39;8.70;73.00
4107;DHT22;21906;50.812;7.132;2023-12-20T10:17:06;8.80;73.00
4107;DHT22;21906;50.812;7.132;2023-12-20T10:19:32;8.80;73.10
4107;DHT22;21906;50.812;7.132;2023-12-20T10:22:04;8.70;73.00
4107;DHT22;21906;50.812;7.132;2023-12-20T10:24:30;8.70;73.20
4107;DHT22;21906;50.812;7.132;2023-12-20T10:27:07;8.70;72.80
4107;DHT22;21906;50.812;7.132;2023-12-20T10:29:37;8.80;72.90
4107;DHT22;21906;50.812;7.132;2023-12-20T10:34:50;8.80;72.90
4107;DHT22;21906;50.812;7.132;2023-12-20T10:37:15;8.70;72.90
4107;DHT22;21906;50.812;7.132;2023-12-20T10:39:42;8.80;73.00
4107;DHT22;21906;50.812;7.132;2023-12-20T10:42:10;8.90;73.10
4107;DHT22;21906;50.812;7.132;2023-12-20T10:44:37;8.90;73.00
4107;DHT22;21906;50.812;7.132;2023-12-20T10:47:04;8.90;72.90
4107;DHT22;21906;50.812;7.132;2023-12-20T10:49:31;8.90;73.10
4107;DHT22;21906;50.812;7.132;2023-12-20T10:51:59;8.90;72.90
4107;DHT22;21906;50.812;7.132;2023-12-20T10:54:26;8.90;72.60
4107;DHT22;21906;50.812;7.132;2023-12-20T10:56:52;8.90;72.70
4107;DHT22;21906;50.812;7.132;2023-12-20T10:59:20;8.90;72.90
4107;DHT22;21906;50.812;7.132;2023-12-20T11:01:48;8.90;73.00
4107;DHT22;21906;50.812;7.132;2023-12-20T11:04:20;8.90;73.20
4107;DHT22;21906;50.812;7.132;2023-12-20T11:06:54;9.00;72.90
4107;DHT22;21906;50.812;7.132;2023-12-20T11:12:09;9.00;72.60
4107;DHT22;21906;50.812;7.132;2023-12-20T11:14:49;9.00;72.90
4107;DHT22;21906;50.812;7.132;2023-12-20T11:17:15;9.00;72.50
4107;DHT22;21906;50.812;7.132;2023-12-20T11:22:29;8.90;72.80
4107;DHT22;21906;50.812;7.132;2023-12-20T11:25:05;9.00;72.90
4107;DHT22;21906;50.812;7.132;2023-12-20T11:27:34;9.00;72.60
4107;DHT22;21906;50.812;7.132;2023-12-20T11:30:03;9.00;72.70
4107;DHT22;21906;50.812;7.132;2023-12-20T11:32:37;9.10;72.70
4107;DHT22;21906;50.812;7.132;2023-12-20T11:37:38;9.00;72.90
4107;DHT22;21906;50.812;7.132;2023-12-20T11:40:13;9.00;72.60
4107;DHT22;21906;50.812;7.132;2023-12-20T11:42:41;9.00;72.90
4107;DHT22;21906;50.812;7.132;2023-12-20T11:45:12;8.90;72.90
4107;DHT22;21906;50.812;7.132;2023-12-20T11:47:42;9.00;73.00
4107;DHT22;21906;50.812;7.132;2023-12-20T11:50:08;9.00;72.80
4107;DHT22;21906;50.812;7.132;2023-12-20T11:52:33;9.10;72.80
4107;DHT22;21906;50.812;7.132;2023-12-20T11:55:00;9.10;72.10
4107;DHT22;21906;50.812;7.132;2023-12-20T11:57:26;9.20;72.40
4107;DHT22;21906;50.812;7.132;2023-12-20T11:59:51;9.20;72.10
4107;DHT22;21906;50.812;7.132;2023-12-20T12:02:17;9.30;72.20
4107;DHT22;21906;50.812;7.132;2023-12-20T12:04:43;9.30;71.90
4107;DHT22;21906;50.812;7.132;2023-12-20T12:07:09;9.30;71.90
4107;DHT22;21906;50.812;7.132;2023-12-20T12:09:35;9.30;72.00
4107;DHT22;21906;50.812;7.132;2023-12-20T12:12:01;9.20;72.20
4107;DHT22;21906;50.812;7.132;2023-12-20T12:14:27;9.20;72.50
4107;DHT22;21906;50.812;7.132;2023-12-20T12:16:53;9.30;72.40
4107;DHT22;21906;50.812;7.132;2023-12-20T12:19:23;9.40;72.00
4107;DHT22;21906;50.812;7.132;2023-12-20T12:22:05;9.30;71.90
4107;DHT22;21906;50.812;7.132;2023-12-20T12:24:32;9.30;72.40
4107;DHT22;21906;50.812;7.132;2023-12-20T12:26:58;9.30;71.90
4107;DHT22;21906;50.812;7.132;2023-12-20T12:29:24;9.20;72.00
4107;DHT22;21906;50.812;7.132;2023-12-20T12:31:50;9.30;72.30
4107;DHT22;21906;50.812;7.132;2023-12-20T12:34:17;9.30;71.90
4107;DHT22;21906;50.812;7.132;2023-12-20T12:36:43;9.30;72.00
4107;DHT22;21906;50.812;7.132;2023-12-20T12:39:12;9.20;72.00
4107;DHT22;21906;50.812;7.132;2023-12-20T12:41:40;9.20;72.50
4107;DHT22;21906;50.812;7.132;2023-12-20T12:44:06;9.20;72.50
4107;DHT22;21906;50.812;7.132;2023-12-20T12:46:32;9.10;72.40
4107;DHT22;21906;50.812;7.132;2023-12-20T12:48:58;9.10;72.90
4107;DHT22;21906;50.812;7.132;2023-12-20T12:51:24;9.20;72.60
4107;DHT22;21906;50.812;7.132;2023-12-20T12:53:49;9.20;72.50
4107;DHT22;21906;50.812;7.132;2023-12-20T12:56:15;9.10;72.60
4107;DHT22;21906;50.812;7.132;2023-12-20T12:58:41;9.10;72.70
4107;DHT22;21906;50.812;7.132;2023-12-20T13:01:07;9.20;72.60
4107;DHT22;21906;50.812;7.132;2023-12-20T13:03:33;9.10;72.80
4107;DHT22;21906;50.812;7.132;2023-12-20T13:05:59;9.10;72.90
4107;DHT22;21906;50.812;7.132;2023-12-20T13:08:25;9.20;73.00
4107;DHT22;21906;50.812;7.132;2023-12-20T13:10:51;9.20;73.10
4107;DHT22;21906;50.812;7.132;2023-12-20T13:13:17;9.10;73.10
4107;DHT22;21906;50.812;7.132;2023-12-20T13:15:43;9.20;72.90
4107;DHT22;21906;50.812;7.132;2023-12-20T13:18:16;9.20;73.00
4107;DHT22;21906;50.812;7.132;2023-12-20T13:20:43;9.30;72.90
4107;DHT22;21906;50.812;7.132;2023-12-20T13:23:09;9.20;72.90
4107;DHT22;21906;50.812;7.132;2023-12-20T13:25:35;9.30;73.00
4107;DHT22;21906;50.812;7.132;2023-12-20T13:28:01;9.20;73.60
4107;DHT22;21906;50.812;7.132;2023-12-20T13:30:28;9.20;74.40
4107;DHT22;21906;50.812;7.132;2023-12-20T13:32:53;9.20;74.60
4107;DHT22;21906;50.812;7.132;2023-12-20T13:35:19;9.10;75.00
4107;DHT22;21906;50.812;7.132;2023-12-20T13:37:46;9.00;76.10
4107;DHT22;21906;50.812;7.132;2023-12-20T13:40:12;8.90;76.80
4107;DHT22;21906;50.812;7.132;2023-12-20T13:42:39;9.00;76.90
4107;DHT22;21906;50.812;7.132;2023-12-20T13:45:05;9.00;77.50
4107;DHT22;21906;50.812;7.132;2023-12-20T13:47:32;8.90;77.60
4107;DHT22;21906;50.812;7.132;2023-12-20T13:49:58;8.90;78.10
4107;DHT22;21906;50.812;7.132;2023-12-20T13:52:24;8.80;78.40
4107;DHT22;21906;50.812;7.132;2023-12-20T13:54:49;8.90;78.00
4107;DHT22;21906;50.812;7.132;2023-12-20T13:57:15;9.00;78.00
4107;DHT22;21906;50.812;7.132;2023-12-20T13:59:41;8.90;78.70
4107;DHT22;21906;50.812;7.132;2023-12-20T14:02:07;8.90;78.80
4107;DHT22;21906;50.812;7.132;2023-12-20T14:04:33;9.00;78.00
4107;DHT22;21906;50.812;7.132;2023-12-20T14:06:59;8.90;77.80
4107;DHT22;21906;50.812;7.132;2023-12-20T14:09:24;8.90;77.90
4107;DHT22;21906;50.812;7.132;2023-12-20T14:11:50;8.90;77.90
4107;DHT22;21906;50.812;7.132;2023-12-20T14:14:16;8.90;77.80
4107;DHT22;21906;50.812;7.132;2023-12-20T14:16:41;8.80;77.90
4107;DHT22;21906;50.812;7.132;2023-12-20T14:19:11;8.80;78.20
4107;DHT22;21906;50.812;7.132;2023-12-20T14:21:36;8.70;78.60
4107;DHT22;21906;50.812;7.132;2023-12-20T14:24:02;8.70;78.40
4107;DHT22;21906;50.812;7.132;2023-12-20T14:26:30;8.80;78.40
4107;DHT22;21906;50.812;7.132;2023-12-20T14:28:55;8.90;78.00
4107;DHT22;21906;50.812;7.132;2023-12-20T14:31:21;8.90;78.00
4107;DHT22;21906;50.812;7.132;2023-12-20T14:33:50;8.90;77.90
4107;DHT22;21906;50.812;7.132;2023-12-20T14:36:19;8.90;77.70
4107;DHT22;21906;50.812;7.132;2023-12-20T14:38:45;8.80;78.00
4107;DHT22;21906;50.812;7.132;2023-12-20T14:41:12;8.80;77.80
4107;DHT22;21906;50.812;7.132;2023-12-20T14:43:38;8.90;77.60
4107;DHT22;21906;50.812;7.132;2023-12-20T14:46:04;8.90;77.40
4107;DHT22;21906;50.812;7.132;2023-12-20T14:48:31;8.90;77.40
4107;DHT22;21906;50.812;7.132;2023-12-20T14:50:57;8.90;77.30
4107;DHT22;21906;50.812;7.132;2023-12-20T14:53:24;8.90;77.10
4107;DHT22;21906;50.812;7.132;2023-12-20T14:55:51;8.90;77.00
4107;DHT22;21906;50.812;7.132;2023-12-20T14:58:17;8.90;77.00
4107;DHT22;21906;50.812;7.132;2023-12-20T15:00:42;9.00;76.90
4107;DHT22;21906;50.812;7.132;2023-12-20T15:03:09;9.00;76.70
4107;DHT22;21906;50.812;7.132;2023-12-20T15:05:35;9.00;76.50
4107;DHT22;21906;50.812;7.132;2023-12-20T15:08:01;9.00;76.60
4107;DHT22;21906;50.812;7.132;2023-12-20T15:10:27;9.10;76.70
4107;DHT22;21906;50.812;7.132;2023-12-20T15:12:53;9.10;76.60
4107;DHT22;21906;50.812;7.132;2023-12-20T15:15:19;9.10;76.60
4107;DHT22;21906;50.812;7.132;2023-12-20T15:17:45;9.20;76.40
4107;DHT22;21906;50.812;7.132;2023-12-20T15:20:11;9.10;76.40
4107;DHT22;21906;50.812;7.132;2023-12-20T15:22:37;9.10;76.60
4107;DHT22;21906;50.812;7.132;2023-12-20T15:25:03;9.00;76.90
4107;DHT22;21906;50.812;7.132;2023-12-20T15:27:32;9.10;76.90
4107;DHT22;21906;50.812;7.132;2023-12-20T15:29:59;9.10;76.80
4107;DHT22;21906;50.812;7.132;2023-12-20T15:32:24;9.10;76.80
4107;DHT22;21906;50.812;7.132;2023-12-20T15:34:50;9.10;76.90
4107;DHT22;21906;50.812;7.132;2023-12-20T15:37:17;9.10;76.90
4107;DHT22;21906;50.812;7.132;2023-12-20T15:39:43;9.10;76.90
4107;DHT22;21906;50.812;7.132;2023-12-20T15:42:09;9.20;77.00
4107;DHT22;21906;50.812;7.132;2023-12-20T15:44:34;9.20;76.90
4107;DHT22;21906;50.812;7.132;2023-12-20T15:47:00;9.10;76.60
4107;DHT22;21906;50.812;7.132;2023-12-20T15:49:26;9.10;76.70
4107;DHT22;21906;50.812;7.132;2023-12-20T15:51:52;9.10;76.70
4107;DHT22;21906;50.812;7.132;2023-12-20T15:54:17;9.10;76.90
4107;DHT22;21906;50.812;7.132;2023-12-20T15:56:43;9.20;76.80
4107;DHT22;21906;50.812;7.132;2023-12-20T15:59:11;9.20;76.70
4107;DHT22;21906;50.812;7.132;2023-12-20T16:01:37;9.10;77.00
4107;DHT22;21906;50.812;7.132;2023-12-20T16:04:03;9.20;76.80
4107;DHT22;21906;50.812;7.132;2023-12-20T16:06:29;9.30;76.50